createdAt,value
2018-12-26T00:00:58.586Z,76.10
2018-12-26T00:05:03.073Z,76.10
2018-12-26T00:09:08.183Z,75.90
2018-12-26T00:13:12.745Z,75.60
2018-12-26T00:17:17.295Z,76.00
2018-12-26T00:21:21.888Z,75.70
2018-12-26T00:25:26.418Z,75.90
2018-12-26T00:29:30.928Z,75.90
2018-12-26T00:33:35.459Z,76.00
2018-12-26T00:37:39.988Z,75.90
2018-12-26T00:41:44.528Z,75.90
2018-12-26T00:45:49.027Z,75.90
2018-12-26T00:49:53.572Z,75.70
2018-12-26T00:53:58.102Z,75.70
2018-12-26T00:58:02.634Z,75.30
2018-12-26T01:02:07.166Z,75.80
2018-12-26T01:06:11.649Z,75.90
2018-12-26T01:10:16.178Z,75.60
2018-12-26T01:14:19.640Z,76.70
2018-12-26T01:18:23.146Z,77.70
2018-12-26T01:22:26.602Z,77.80
2018-12-26T01:26:30.020Z,78.70
2018-12-26T01:30:33.462Z,78.70
2018-12-26T01:34:36.918Z,79.20
2018-12-26T01:38:40.366Z,78.60
2018-12-26T01:42:43.812Z,78.90
2018-12-26T01:46:47.230Z,78.90
2018-12-26T01:50:50.684Z,79.10
2018-12-26T01:55:22.521Z,78.90
2018-12-26T01:59:27.057Z,79.30
2018-12-26T02:03:31.800Z,78.20
2018-12-26T02:07:36.351Z,77.60
2018-12-26T02:11:40.870Z,76.90
2018-12-26T02:15:45.411Z,76.90
2018-12-26T02:19:49.994Z,76.40
2018-12-26T02:23:54.542Z,76.50
2018-12-26T02:27:59.115Z,76.40
2018-12-26T02:32:03.633Z,76.40
2018-12-26T02:36:08.167Z,76.20
2018-12-26T02:40:12.686Z,76.20
2018-12-26T02:44:17.252Z,76.10
2018-12-26T02:48:21.768Z,76.00
2018-12-26T02:52:26.263Z,75.90
2018-12-26T02:56:30.789Z,75.80
2018-12-26T03:00:35.329Z,76.60
2018-12-26T03:04:39.863Z,75.00
2018-12-26T03:08:44.396Z,75.90
2018-12-26T03:12:48.882Z,75.90
2018-12-26T03:16:53.456Z,76.00
2018-12-26T03:20:58.015Z,75.90
2018-12-26T03:25:02.526Z,76.00
2018-12-26T03:29:07.079Z,76.70
2018-12-26T03:33:11.573Z,76.00
2018-12-26T03:37:16.091Z,76.00
2018-12-26T03:41:20.830Z,75.80
2018-12-26T03:45:25.667Z,75.90
2018-12-26T03:49:30.211Z,76.00
2018-12-26T03:53:34.792Z,75.70
2018-12-26T03:57:39.319Z,76.00
2018-12-26T04:01:43.843Z,75.40
2018-12-26T04:05:48.384Z,75.60
2018-12-26T04:09:52.901Z,75.80
2018-12-26T04:13:57.395Z,75.60
2018-12-26T04:18:01.955Z,76.80
2018-12-26T04:22:06.812Z,76.00
2018-12-26T04:26:11.343Z,76.80
2018-12-26T04:30:15.875Z,76.20
2018-12-26T04:34:20.369Z,76.30
2018-12-26T04:38:25.174Z,76.30
2018-12-26T04:42:29.732Z,76.30
2018-12-26T04:46:34.269Z,76.30
2018-12-26T04:50:38.815Z,76.50
2018-12-26T04:54:43.302Z,76.60
2018-12-26T04:58:47.973Z,77.10
2018-12-26T05:02:52.511Z,76.60
2018-12-26T05:06:57.036Z,76.60
2018-12-26T05:11:01.573Z,77.00
2018-12-26T05:15:06.099Z,77.60
2018-12-26T05:19:10.661Z,77.40
2018-12-26T05:23:15.179Z,77.50
2018-12-26T05:27:19.827Z,77.50
2018-12-26T05:31:24.371Z,77.80
2018-12-26T05:35:28.907Z,78.70
2018-12-26T05:39:33.399Z,78.20
2018-12-26T05:43:37.917Z,78.10
2018-12-26T05:47:42.440Z,78.20
2018-12-26T05:51:46.969Z,78.50
2018-12-26T05:55:51.531Z,78.60
2018-12-26T05:59:56.022Z,78.70
2018-12-26T06:04:00.548Z,78.00
2018-12-26T06:08:05.079Z,78.50
2018-12-26T06:12:11.475Z,78.70
2018-12-26T06:16:15.791Z,78.70
2018-12-26T06:20:20.347Z,78.70
2018-12-26T06:24:24.882Z,78.70
2018-12-26T06:28:29.432Z,78.70
2018-12-26T06:32:33.962Z,78.80
2018-12-26T06:36:38.459Z,78.80
2018-12-26T06:40:42.983Z,78.80
2018-12-26T06:44:47.576Z,79.10
2018-12-26T06:48:52.043Z,79.10
2018-12-26T06:52:56.585Z,79.10
2018-12-26T06:57:01.083Z,79.10
2018-12-26T07:01:05.624Z,79.10
2018-12-26T07:05:10.159Z,79.30
2018-12-26T07:09:14.696Z,79.40
2018-12-26T07:13:19.276Z,79.70
2018-12-26T07:17:23.761Z,79.70
2018-12-26T07:21:28.367Z,79.70
2018-12-26T07:25:32.891Z,79.80
2018-12-26T07:29:37.415Z,79.70
2018-12-26T07:33:41.953Z,79.70
2018-12-26T07:37:46.463Z,79.60
2018-12-26T07:41:50.996Z,80.00
2018-12-26T07:45:55.537Z,79.70
2018-12-26T07:50:00.089Z,79.80
2018-12-26T07:54:04.806Z,79.70
2018-12-26T07:58:17.395Z,79.70
2018-12-26T08:02:15.584Z,79.90
2018-12-26T08:06:20.133Z,79.80
2018-12-26T08:10:24.615Z,80.10
2018-12-26T08:14:29.160Z,80.00
2018-12-26T08:18:33.773Z,80.70
2018-12-26T08:22:38.256Z,80.10
2018-12-26T08:26:42.790Z,80.20
2018-12-26T08:30:47.295Z,80.40
2018-12-26T08:34:51.808Z,80.40
2018-12-26T08:38:56.340Z,80.80
2018-12-26T08:43:00.948Z,80.50
2018-12-26T08:47:05.444Z,80.60
2018-12-26T08:51:10.160Z,80.60
2018-12-26T08:55:14.717Z,80.60
2018-12-26T08:59:19.253Z,80.70
2018-12-26T09:03:23.802Z,80.80
2018-12-26T09:07:28.310Z,80.60
2018-12-26T09:11:32.854Z,80.70
2018-12-26T09:15:37.385Z,80.70
2018-12-26T09:19:41.950Z,80.60
2018-12-26T09:23:46.488Z,80.10
2018-12-26T09:27:51.183Z,80.70
2018-12-26T09:31:55.716Z,80.50
2018-12-26T09:36:00.247Z,80.50
2018-12-26T09:40:04.948Z,80.50
2018-12-26T09:44:09.435Z,80.50
2018-12-26T09:48:13.972Z,81.00
2018-12-26T09:52:18.583Z,80.80
2018-12-26T09:56:23.110Z,80.70
2018-12-26T10:00:27.636Z,80.70
2018-12-26T10:04:32.134Z,80.80
2018-12-26T10:08:36.666Z,81.10
2018-12-26T10:12:41.190Z,80.80
2018-12-26T10:16:45.716Z,80.90
2018-12-26T10:20:50.294Z,80.80
2018-12-26T10:24:54.773Z,81.00
2018-12-26T10:29:01.090Z,81.00
2018-12-26T10:33:05.488Z,80.90
2018-12-26T10:37:10.018Z,81.00
2018-12-26T10:41:14.568Z,80.90
2018-12-26T10:45:19.062Z,81.00
2018-12-26T10:49:23.596Z,81.30
2018-12-26T10:53:28.123Z,81.00
2018-12-26T10:57:32.679Z,81.20
2018-12-26T11:01:37.214Z,81.50
2018-12-26T11:05:41.733Z,81.10
2018-12-26T11:09:46.262Z,81.20
2018-12-26T11:13:50.814Z,81.30
2018-12-26T11:17:55.892Z,81.30
2018-12-26T11:22:00.430Z,81.20
2018-12-26T11:26:05.294Z,81.30
2018-12-26T11:30:10.598Z,81.30
2018-12-26T11:34:15.135Z,81.20
2018-12-26T11:38:19.674Z,81.50
2018-12-26T11:42:24.242Z,81.60
2018-12-26T11:46:28.735Z,81.30
2018-12-26T11:50:33.250Z,81.60
2018-12-26T11:54:38.162Z,81.30
2018-12-26T11:58:42.691Z,81.30
2018-12-26T12:02:47.227Z,81.40
2018-12-26T12:06:51.723Z,81.40
2018-12-26T12:10:56.277Z,81.30
2018-12-26T12:15:00.831Z,81.50
2018-12-26T12:19:05.393Z,81.40
2018-12-26T12:23:09.924Z,81.50
2018-12-26T12:27:14.434Z,81.60
2018-12-26T12:31:18.988Z,81.70
2018-12-26T12:35:23.520Z,81.60
2018-12-26T12:39:28.270Z,81.90
2018-12-26T12:43:32.793Z,81.60
2018-12-26T12:47:37.380Z,81.60
2018-12-26T12:51:41.927Z,81.50
2018-12-26T12:55:46.479Z,81.60
2018-12-26T12:59:51.028Z,81.60
2018-12-26T13:03:55.571Z,81.00
2018-12-26T13:08:00.076Z,81.90
2018-12-26T13:12:04.603Z,81.70
2018-12-26T13:16:09.187Z,81.70
2018-12-26T13:20:13.762Z,81.70
2018-12-26T13:24:18.298Z,81.60
2018-12-26T13:28:22.782Z,81.70
2018-12-26T13:32:27.306Z,82.00
2018-12-26T13:36:31.852Z,81.90
2018-12-26T13:40:36.414Z,81.20
2018-12-26T13:44:40.950Z,82.00
2018-12-26T13:48:45.451Z,81.80
2018-12-26T13:52:50.027Z,81.90
2018-12-26T13:56:54.623Z,82.60
2018-12-26T14:00:59.175Z,81.80
2018-12-26T14:05:03.730Z,81.90
2018-12-26T14:09:08.530Z,81.20
2018-12-26T14:13:13.059Z,81.70
2018-12-26T14:17:17.598Z,81.70
2018-12-26T14:21:22.155Z,81.90
2018-12-26T14:25:26.695Z,81.80
2018-12-26T14:29:31.182Z,81.60
2018-12-26T14:33:35.751Z,81.90
2018-12-26T14:37:40.269Z,81.70
2018-12-26T14:41:44.803Z,81.80
2018-12-26T14:45:49.342Z,81.20
2018-12-26T14:49:53.854Z,81.70
2018-12-26T14:53:58.370Z,81.80
2018-12-26T14:58:02.915Z,81.60
2018-12-26T15:02:07.428Z,81.80
2018-12-26T15:06:11.981Z,81.70
2018-12-26T15:10:16.467Z,81.70
2018-12-26T15:14:20.995Z,81.70
2018-12-26T15:18:25.569Z,81.80
2018-12-26T15:22:30.102Z,81.80
2018-12-26T15:26:34.615Z,81.90
2018-12-26T15:30:39.108Z,81.90
2018-12-26T15:34:43.636Z,81.90
2018-12-26T15:38:48.236Z,81.80
2018-12-26T15:42:52.804Z,81.70
2018-12-26T15:46:57.356Z,81.80
2018-12-26T15:51:01.888Z,81.80
2018-12-26T15:55:06.647Z,81.80
2018-12-26T15:59:11.193Z,81.80
2018-12-26T16:03:15.731Z,81.80
2018-12-26T16:07:21.055Z,81.90
2018-12-26T16:11:25.555Z,82.00
2018-12-26T16:15:30.087Z,81.80
2018-12-26T16:19:34.646Z,81.80
2018-12-26T16:23:39.203Z,81.80
2018-12-26T16:27:43.733Z,81.90
2018-12-26T16:31:48.225Z,82.00
2018-12-26T16:35:52.798Z,82.00
2018-12-26T16:39:57.373Z,81.90
2018-12-26T16:44:03.025Z,82.00
2018-12-26T16:48:07.796Z,82.20
2018-12-26T16:52:12.489Z,82.10
2018-12-26T16:56:17.079Z,82.10
2018-12-26T17:00:21.662Z,82.30
2018-12-26T17:04:26.811Z,82.20
2018-12-26T17:08:31.492Z,81.60
2018-12-26T17:12:36.084Z,82.30
2018-12-26T17:16:40.883Z,82.30
2018-12-26T17:20:45.766Z,82.40
2018-12-26T17:24:50.391Z,82.30
2018-12-26T17:28:55.167Z,82.30
2018-12-26T17:33:00.691Z,82.50
2018-12-26T17:37:05.991Z,82.30
2018-12-26T17:41:10.653Z,82.40
2018-12-26T17:45:23.131Z,82.50
2018-12-26T17:49:27.683Z,82.40
2018-12-26T17:54:19.391Z,82.40
2018-12-26T17:58:23.966Z,82.30
2018-12-26T18:02:32.352Z,82.40
2018-12-26T18:06:36.886Z,82.60
2018-12-26T18:10:41.439Z,82.40
2018-12-26T18:14:46.071Z,82.30
2018-12-26T18:18:50.771Z,82.40
2018-12-26T18:22:55.460Z,82.50
2018-12-26T18:27:00.057Z,82.40
2018-12-26T18:31:04.630Z,82.50
2018-12-26T18:35:10.404Z,82.50
2018-12-26T18:39:15.177Z,82.60
2018-12-26T18:43:19.828Z,82.50
2018-12-26T18:47:24.492Z,82.50
2018-12-26T18:51:29.126Z,82.50
2018-12-26T18:55:33.747Z,82.50
2018-12-26T18:59:38.497Z,82.50
2018-12-26T19:03:43.168Z,82.60
2018-12-26T19:07:47.851Z,82.60
2018-12-26T19:11:52.392Z,82.60
2018-12-26T19:15:57.182Z,82.50
2018-12-26T19:20:01.751Z,82.50
2018-12-26T19:24:06.240Z,82.00
2018-12-26T19:28:10.777Z,82.60
2018-12-26T19:32:18.747Z,82.70
2018-12-26T19:36:23.297Z,82.50
2018-12-26T19:40:27.829Z,82.50
2018-12-26T19:44:32.319Z,82.50
2018-12-26T19:48:36.865Z,82.50
2018-12-26T19:52:41.393Z,82.50
2018-12-26T19:56:45.935Z,82.40
2018-12-26T20:00:50.475Z,82.50
2018-12-26T20:04:54.995Z,81.90
2018-12-26T20:08:59.523Z,82.60
2018-12-26T20:13:04.067Z,82.50
2018-12-26T20:17:08.648Z,82.50
2018-12-26T20:21:13.191Z,82.40
2018-12-26T20:25:17.683Z,82.70
2018-12-26T20:29:22.202Z,83.50
2018-12-26T20:33:26.806Z,82.60
2018-12-26T20:37:31.332Z,83.00
2018-12-26T20:41:35.882Z,83.50
2018-12-26T20:45:40.401Z,82.70
2018-12-26T20:49:44.931Z,82.80
2018-12-26T20:53:50.166Z,82.70
2018-12-26T20:57:54.781Z,82.70
2018-12-26T21:02:05.579Z,83.10
2018-12-26T21:06:05.462Z,83.10
2018-12-26T21:10:10.227Z,83.20
2018-12-26T21:14:14.759Z,83.10
2018-12-26T21:18:19.335Z,82.30
2018-12-26T21:22:23.859Z,82.90
2018-12-26T21:26:28.355Z,82.90
2018-12-26T21:30:32.898Z,82.90
2018-12-26T21:34:37.394Z,82.90
2018-12-26T21:38:41.923Z,82.70
2018-12-26T21:42:46.462Z,82.40
2018-12-26T21:46:50.958Z,82.60
2018-12-26T21:50:55.484Z,82.60
2018-12-26T21:55:00.025Z,82.70
2018-12-26T21:59:04.551Z,82.70
2018-12-26T22:03:09.084Z,82.80
2018-12-26T22:07:13.567Z,82.70
2018-12-26T22:11:18.184Z,82.80
2018-12-26T22:15:22.723Z,82.90
2018-12-26T22:19:27.280Z,83.00
2018-12-26T22:23:31.853Z,82.80
2018-12-26T22:27:36.455Z,82.70
2018-12-26T22:31:41.343Z,82.70
2018-12-26T22:35:45.858Z,82.70
2018-12-26T22:39:50.371Z,82.80
2018-12-26T22:43:54.946Z,82.80
2018-12-26T22:47:59.427Z,82.50
2018-12-26T22:52:03.945Z,82.50
2018-12-26T22:56:08.563Z,82.40
2018-12-26T23:00:14.898Z,82.20
2018-12-26T23:04:19.426Z,82.20
2018-12-26T23:08:23.941Z,82.20
2018-12-26T23:12:28.497Z,82.10
2018-12-26T23:16:33.007Z,82.10
2018-12-26T23:20:37.592Z,81.90
2018-12-26T23:24:42.120Z,81.70
2018-12-26T23:28:46.627Z,81.60
2018-12-26T23:32:51.158Z,82.20
2018-12-26T23:36:55.690Z,81.40
2018-12-26T23:41:00.220Z,81.30
2018-12-26T23:45:04.739Z,81.30
2018-12-26T23:49:09.229Z,81.10
2018-12-26T23:53:13.758Z,80.90
2018-12-26T23:57:18.311Z,81.00
